createdAt,value
2017-09-17T00:01:25.298Z,10.03
2017-09-17T00:03:53.710Z,10.23
2017-09-17T00:06:24.172Z,10.67
2017-09-17T00:08:52.590Z,11.97
2017-09-17T00:11:20.926Z,10.60
2017-09-17T00:13:49.748Z,11.23
2017-09-17T00:16:18.093Z,10.47
2017-09-17T00:18:47.062Z,11.37
2017-09-17T00:21:17.309Z,12.90
2017-09-17T00:23:45.661Z,11.17
2017-09-17T00:26:14.854Z,11.47
2017-09-17T00:28:43.502Z,11.33
2017-09-17T00:31:11.878Z,11.97
2017-09-17T00:33:40.275Z,12.47
2017-09-17T00:36:09.018Z,12.13
2017-09-17T00:38:37.364Z,12.77
2017-09-17T00:41:07.790Z,12.17
2017-09-17T00:43:36.605Z,12.00
2017-09-17T00:46:05.000Z,13.20
2017-09-17T00:48:33.374Z,12.53
2017-09-17T00:51:03.723Z,12.10
2017-09-17T00:53:32.234Z,12.93
2017-09-17T00:56:01.542Z,12.70
2017-09-17T00:58:31.045Z,12.50
2017-09-17T01:00:59.594Z,11.97
2017-09-17T01:03:28.196Z,11.90
2017-09-17T01:05:56.817Z,12.63
2017-09-17T01:08:26.753Z,12.07
2017-09-17T01:10:55.741Z,13.67
2017-09-17T01:13:24.668Z,12.23
2017-09-17T01:15:53.030Z,13.30
2017-09-17T01:18:21.400Z,11.33
2017-09-17T01:20:50.105Z,12.37
2017-09-17T01:23:18.485Z,13.07
2017-09-17T01:25:47.837Z,12.63
2017-09-17T01:28:17.583Z,12.07
2017-09-17T01:30:46.223Z,12.70
2017-09-17T01:33:14.591Z,13.33
2017-09-17T01:35:44.062Z,12.03
2017-09-17T01:38:12.422Z,13.47
2017-09-17T01:40:43.139Z,13.50
2017-09-17T01:43:13.911Z,13.50
2017-09-17T01:45:42.259Z,12.10
2017-09-17T01:48:11.423Z,13.00
2017-09-17T01:50:40.493Z,12.30
2017-09-17T01:53:11.273Z,13.10
2017-09-17T01:55:39.631Z,12.50
2017-09-17T01:58:08.281Z,13.00
2017-09-17T02:00:37.170Z,12.77
2017-09-17T02:03:06.438Z,11.33
2017-09-17T02:05:36.404Z,13.27
2017-09-17T02:08:04.758Z,12.50
2017-09-17T02:10:34.786Z,12.40
2017-09-17T02:13:05.366Z,12.30
2017-09-17T02:15:34.405Z,12.23
2017-09-17T02:18:03.501Z,13.33
2017-09-17T02:20:32.249Z,12.47
2017-09-17T02:23:00.862Z,12.20
2017-09-17T02:25:30.091Z,13.30
2017-09-17T02:27:58.957Z,13.53
2017-09-17T02:30:27.337Z,12.47
2017-09-17T02:32:56.463Z,13.13
2017-09-17T02:35:26.039Z,13.43
2017-09-17T02:37:55.613Z,13.47
2017-09-17T02:40:24.191Z,12.87
2017-09-17T02:42:53.000Z,13.60
2017-09-17T02:45:22.689Z,12.90
2017-09-17T02:47:51.044Z,13.27
2017-09-17T02:50:21.925Z,14.80
2017-09-17T02:52:51.070Z,15.13
2017-09-17T02:55:19.441Z,13.87
2017-09-17T02:57:48.329Z,13.77
2017-09-17T03:00:18.100Z,14.60
2017-09-17T03:02:47.214Z,14.00
2017-09-17T03:05:16.645Z,15.37
2017-09-17T03:07:45.038Z,14.90
2017-09-17T03:10:13.419Z,14.67
2017-09-17T03:12:42.192Z,14.10
2017-09-17T03:15:10.634Z,15.17
2017-09-17T03:17:39.762Z,13.40
2017-09-17T03:20:09.503Z,14.83
2017-09-17T03:22:37.874Z,13.77
2017-09-17T03:25:06.255Z,14.30
2017-09-17T03:27:35.012Z,12.50
2017-09-17T03:30:03.419Z,13.60
2017-09-17T03:32:32.614Z,12.70
2017-09-17T03:35:01.510Z,13.87
2017-09-17T03:37:29.904Z,13.90
2017-09-17T03:39:58.887Z,13.10
2017-09-17T03:42:27.854Z,13.73
2017-09-17T03:44:56.398Z,12.50
2017-09-17T03:47:24.772Z,12.93
2017-09-17T03:49:53.623Z,12.30
2017-09-17T03:52:21.982Z,13.33
2017-09-17T03:54:51.457Z,12.57
2017-09-17T03:57:21.094Z,12.23
2017-09-17T03:59:49.436Z,12.90
2017-09-17T04:02:18.653Z,12.90
2017-09-17T04:04:48.061Z,13.33
2017-09-17T04:07:17.167Z,12.60
2017-09-17T04:09:46.272Z,12.07
2017-09-17T04:12:15.010Z,13.53
2017-09-17T04:14:43.405Z,12.70
2017-09-17T04:17:13.930Z,13.00
2017-09-17T04:19:43.771Z,12.63
2017-09-17T04:22:13.390Z,12.00
2017-09-17T04:24:41.747Z,12.77
2017-09-17T04:27:11.271Z,12.77
2017-09-17T04:29:40.316Z,11.97
2017-09-17T04:32:10.578Z,13.60
2017-09-17T04:34:40.867Z,12.80
2017-09-17T04:37:09.270Z,12.70
2017-09-17T04:39:39.061Z,12.10
2017-09-17T04:42:07.824Z,12.67
2017-09-17T04:44:36.188Z,12.77
2017-09-17T04:47:05.153Z,12.83
2017-09-17T04:49:33.798Z,13.10
2017-09-17T04:52:02.997Z,12.97
2017-09-17T04:54:31.343Z,12.60
2017-09-17T04:56:59.969Z,13.63
2017-09-17T04:59:28.343Z,13.60
2017-09-17T05:01:57.121Z,15.23
2017-09-17T05:04:27.304Z,12.30
2017-09-17T05:06:56.555Z,13.30
2017-09-17T05:09:24.890Z,13.80
2017-09-17T05:11:54.120Z,13.40
2017-09-17T05:14:22.497Z,13.23
2017-09-17T05:16:50.974Z,13.53
2017-09-17T05:19:20.219Z,13.20
2017-09-17T05:21:48.579Z,13.90
2017-09-17T05:24:16.935Z,13.13
2017-09-17T05:26:46.497Z,12.60
2017-09-17T05:29:15.406Z,13.17
2017-09-17T05:31:43.768Z,13.17
2017-09-17T05:34:12.834Z,11.20
2017-09-17T05:36:41.557Z,13.10
2017-09-17T05:39:10.330Z,12.37
2017-09-17T05:41:39.755Z,12.40
2017-09-17T05:44:08.517Z,11.53
2017-09-17T05:46:37.864Z,12.33
2017-09-17T05:49:06.634Z,11.70
2017-09-17T05:51:37.403Z,11.77
2017-09-17T05:54:05.949Z,11.57
2017-09-17T05:56:34.669Z,10.67
2017-09-17T05:59:04.189Z,11.70
2017-09-17T06:01:33.510Z,11.13
2017-09-17T06:04:02.334Z,10.47
2017-09-17T06:06:30.934Z,10.57
2017-09-17T06:09:00.906Z,10.93
2017-09-17T06:11:31.464Z,11.10
2017-09-17T06:14:00.430Z,10.37
2017-09-17T06:16:28.779Z,10.83
2017-09-17T06:18:57.405Z,10.33
2017-09-17T06:21:26.125Z,10.33
2017-09-17T06:23:54.473Z,10.37
2017-09-17T06:26:23.398Z,9.80
2017-09-17T06:28:52.426Z,9.30
2017-09-17T06:31:22.295Z,8.60
2017-09-17T06:33:52.063Z,9.00
2017-09-17T06:36:20.423Z,8.43
2017-09-17T06:38:49.468Z,7.60
2017-09-17T06:41:19.040Z,8.33
2017-09-17T06:43:47.441Z,7.90
2017-09-17T06:46:16.343Z,8.37
2017-09-17T06:48:45.357Z,8.80
2017-09-17T06:51:13.840Z,8.50
2017-09-17T06:53:42.215Z,8.70
2017-09-17T06:56:11.340Z,8.07
2017-09-17T06:58:40.920Z,7.53
2017-09-17T07:01:09.297Z,7.13
2017-09-17T07:03:38.868Z,7.23
2017-09-17T07:06:08.029Z,6.83
2017-09-17T07:08:38.727Z,6.73
2017-09-17T07:11:08.370Z,6.73
2017-09-17T07:13:36.716Z,6.57
2017-09-17T07:16:06.098Z,6.80
2017-09-17T07:18:35.251Z,7.47
2017-09-17T07:21:04.346Z,6.00
2017-09-17T07:23:32.940Z,7.90
2017-09-17T07:26:01.688Z,7.57
2017-09-17T07:28:30.334Z,7.97
2017-09-17T07:30:59.521Z,7.70
2017-09-17T07:33:28.185Z,8.00
2017-09-17T07:35:57.336Z,7.63
2017-09-17T07:38:26.541Z,9.70
2017-09-17T07:40:57.379Z,8.00
2017-09-17T07:43:26.571Z,8.07
2017-09-17T07:45:55.700Z,7.70
2017-09-17T07:48:26.561Z,7.87
2017-09-17T07:50:54.987Z,8.20
2017-09-17T07:53:24.123Z,8.10
2017-09-17T07:55:52.888Z,7.80
2017-09-17T07:58:21.292Z,7.70
2017-09-17T08:00:51.116Z,7.50
2017-09-17T08:03:19.951Z,7.57
2017-09-17T08:05:48.979Z,7.30
2017-09-17T08:08:18.303Z,7.17
2017-09-17T08:10:46.930Z,7.40
2017-09-17T08:13:17.359Z,7.63
2017-09-17T08:15:46.596Z,6.67
2017-09-17T08:18:15.361Z,7.17
2017-09-17T08:20:43.720Z,6.97
2017-09-17T08:23:12.082Z,6.80
2017-09-17T08:25:41.288Z,7.50
2017-09-17T08:28:10.439Z,7.20
2017-09-17T08:30:38.841Z,7.30
2017-09-17T08:33:07.635Z,6.93
2017-09-17T08:35:35.983Z,7.30
2017-09-17T08:38:04.359Z,7.40
2017-09-17T08:40:32.979Z,6.87
2017-09-17T08:43:01.843Z,6.40
2017-09-17T08:45:31.406Z,6.93
2017-09-17T08:48:01.911Z,6.43
2017-09-17T08:50:31.163Z,6.33
2017-09-17T08:52:59.581Z,7.87
2017-09-17T08:55:28.367Z,5.87
2017-09-17T08:57:56.755Z,5.67
2017-09-17T09:00:25.140Z,6.77
2017-09-17T09:02:55.518Z,6.30
2017-09-17T09:05:23.933Z,6.10
2017-09-17T09:07:52.312Z,5.63
2017-09-17T09:10:21.957Z,4.90
2017-09-17T09:12:51.110Z,5.70
2017-09-17T09:15:20.179Z,5.70
2017-09-17T09:17:49.212Z,5.60
2017-09-17T09:20:17.874Z,5.33
2017-09-17T09:22:46.677Z,5.90
2017-09-17T09:25:15.336Z,4.40
2017-09-17T09:27:44.696Z,4.77
2017-09-17T09:30:13.781Z,4.50
2017-09-17T09:32:42.942Z,4.30
2017-09-17T09:35:11.392Z,4.43
2017-09-17T09:37:41.120Z,4.17
2017-09-17T09:40:11.092Z,3.37
2017-09-17T09:42:39.462Z,4.20
2017-09-17T09:45:08.800Z,3.60
2017-09-17T09:47:37.961Z,3.50
2017-09-17T09:50:06.723Z,3.13
2017-09-17T09:52:35.103Z,3.13
2017-09-17T09:55:03.817Z,4.33
2017-09-17T09:57:32.435Z,3.00
2017-09-17T10:00:00.856Z,2.90
2017-09-17T10:02:29.806Z,2.70
2017-09-17T10:04:58.942Z,3.60
2017-09-17T10:07:27.301Z,2.30
2017-09-17T10:09:56.919Z,2.50
2017-09-17T10:12:25.265Z,2.10
2017-09-17T10:14:53.700Z,2.33
2017-09-17T10:17:22.642Z,2.40
2017-09-17T10:19:52.520Z,2.40
2017-09-17T10:22:21.925Z,1.97
2017-09-17T10:24:50.564Z,2.10
2017-09-17T10:27:18.943Z,2.17
2017-09-17T10:29:47.782Z,2.20
2017-09-17T10:32:16.399Z,2.17
2017-09-17T10:34:46.479Z,2.13
2017-09-17T10:37:14.939Z,2.10
2017-09-17T10:39:44.697Z,2.40
2017-09-17T10:42:13.817Z,2.10
2017-09-17T10:44:42.939Z,2.00
2017-09-17T10:47:12.700Z,1.50
2017-09-17T10:49:41.645Z,1.80
2017-09-17T10:52:10.089Z,1.70
2017-09-17T10:54:40.353Z,1.70
2017-09-17T10:57:09.247Z,2.00
2017-09-17T10:59:38.236Z,2.10
2017-09-17T11:02:07.756Z,1.90
2017-09-17T11:04:36.154Z,2.37
2017-09-17T11:07:05.033Z,1.90
2017-09-17T11:09:33.724Z,2.30
2017-09-17T11:12:02.614Z,2.10
2017-09-17T11:14:31.779Z,2.40
2017-09-17T11:17:00.498Z,2.60
2017-09-17T11:19:28.848Z,2.60
2017-09-17T11:21:57.603Z,2.27
2017-09-17T11:24:27.583Z,2.30
2017-09-17T11:26:56.224Z,1.97
2017-09-17T11:29:25.353Z,1.97
2017-09-17T11:31:55.161Z,3.50
2017-09-17T11:34:23.502Z,2.40
2017-09-17T11:36:53.486Z,2.10
2017-09-17T11:39:23.163Z,1.90
2017-09-17T11:41:51.518Z,2.07
2017-09-17T11:44:19.879Z,1.90
2017-09-17T11:46:49.857Z,1.60
2017-09-17T11:49:18.225Z,1.90
2017-09-17T11:51:47.528Z,1.63
2017-09-17T11:54:16.241Z,1.50
2017-09-17T11:56:44.925Z,1.53
2017-09-17T11:59:13.292Z,1.90
2017-09-17T12:01:42.149Z,2.53
2017-09-17T12:04:10.514Z,2.20
2017-09-17T12:06:39.638Z,2.60
2017-09-17T12:09:08.702Z,2.00
2017-09-17T12:11:37.099Z,2.40
2017-09-17T12:14:05.477Z,1.50
2017-09-17T12:16:34.163Z,1.77
2017-09-17T12:19:03.313Z,1.27
2017-09-17T12:21:31.691Z,1.40
2017-09-17T12:24:01.175Z,1.50
2017-09-17T12:26:29.535Z,1.70
2017-09-17T12:29:00.379Z,1.70
2017-09-17T12:31:29.327Z,1.50
2017-09-17T12:33:59.700Z,1.40
2017-09-17T12:36:28.051Z,1.70
2017-09-17T12:38:56.721Z,1.80
2017-09-17T12:41:25.884Z,1.57
2017-09-17T12:43:54.704Z,2.67
2017-09-17T12:46:24.116Z,1.97
2017-09-17T12:48:54.033Z,1.60
2017-09-17T12:51:23.467Z,1.90
2017-09-17T12:53:52.254Z,1.97
2017-09-17T12:56:21.579Z,1.77
2017-09-17T12:58:50.782Z,3.37
2017-09-17T13:01:19.741Z,1.50
2017-09-17T13:03:48.972Z,1.40
2017-09-17T13:06:19.520Z,2.20
2017-09-17T13:08:48.559Z,1.60
2017-09-17T13:11:16.939Z,1.60
2017-09-17T13:13:46.841Z,1.80
2017-09-17T13:16:15.917Z,1.60
2017-09-17T13:18:45.047Z,1.67
2017-09-17T13:21:13.499Z,1.63
2017-09-17T13:23:43.748Z,2.27
2017-09-17T13:26:13.187Z,2.50
2017-09-17T13:28:41.636Z,1.80
2017-09-17T13:31:10.433Z,1.97
2017-09-17T13:33:40.088Z,1.93
2017-09-17T13:36:08.454Z,1.20
2017-09-17T13:38:37.698Z,1.60
2017-09-17T13:41:06.916Z,1.20
2017-09-17T13:43:35.299Z,1.20
2017-09-17T13:46:04.220Z,1.40
2017-09-17T13:48:32.681Z,1.87
2017-09-17T13:51:01.591Z,1.40
2017-09-17T13:53:30.311Z,1.60
2017-09-17T13:55:59.760Z,1.30
2017-09-17T13:58:29.179Z,1.20
2017-09-17T14:04:17.662Z,1.40
2017-09-17T14:06:49.856Z,0.90
2017-09-17T14:09:19.149Z,1.43
2017-09-17T14:11:48.298Z,1.20
2017-09-17T14:14:16.940Z,1.30
2017-09-17T14:16:47.917Z,1.60
2017-09-17T14:19:17.078Z,1.57
2017-09-17T14:21:46.112Z,1.50
2017-09-17T14:24:16.032Z,1.37
2017-09-17T14:26:45.290Z,1.87
2017-09-17T14:29:14.696Z,1.73
2017-09-17T14:31:43.882Z,1.60
2017-09-17T14:34:12.255Z,2.37
2017-09-17T14:36:41.051Z,1.90
2017-09-17T14:39:09.475Z,1.63
2017-09-17T14:41:39.072Z,1.77
2017-09-17T14:44:08.877Z,1.87
2017-09-17T14:46:38.256Z,2.00
2017-09-17T14:49:06.933Z,1.80
2017-09-17T14:51:35.967Z,2.10
2017-09-17T14:54:04.354Z,1.90
2017-09-17T14:56:33.686Z,1.97
2017-09-17T14:59:03.261Z,2.00
2017-09-17T15:01:32.290Z,1.80
2017-09-17T15:04:01.985Z,1.60
2017-09-17T15:06:31.782Z,2.20
2017-09-17T15:09:00.547Z,2.10
2017-09-17T15:11:29.652Z,1.97
2017-09-17T15:13:59.070Z,2.00
2017-09-17T15:16:29.015Z,1.60
2017-09-17T15:18:58.395Z,1.70
2017-09-17T15:21:27.190Z,2.00
2017-09-17T15:23:55.575Z,1.77
2017-09-17T15:26:24.198Z,2.00
2017-09-17T15:28:53.737Z,2.00
2017-09-17T15:31:22.120Z,1.90
2017-09-17T15:33:50.510Z,2.70
2017-09-17T15:36:19.637Z,2.10
2017-09-17T15:38:48.778Z,2.50
2017-09-17T15:41:17.395Z,2.57
2017-09-17T15:43:47.472Z,2.13
2017-09-17T15:46:17.434Z,2.10
2017-09-17T15:48:47.183Z,1.87
2017-09-17T15:51:16.137Z,2.10
2017-09-17T15:53:44.486Z,2.03
2017-09-17T15:56:12.866Z,2.30
2017-09-17T15:58:41.784Z,2.60
2017-09-17T16:01:11.097Z,2.80
2017-09-17T16:03:39.447Z,2.57
2017-09-17T16:06:08.334Z,2.20
2017-09-17T16:08:37.403Z,2.67
2017-09-17T16:11:06.671Z,2.03
2017-09-17T16:13:36.044Z,3.03
2017-09-17T16:16:05.205Z,3.07
2017-09-17T16:18:34.211Z,3.80
2017-09-17T16:21:02.894Z,3.30
2017-09-17T16:23:32.693Z,5.17
2017-09-17T16:26:01.071Z,5.07
2017-09-17T16:28:29.942Z,4.10
2017-09-17T16:30:59.130Z,4.77
2017-09-17T16:33:29.184Z,5.97
2017-09-17T16:36:00.243Z,3.77
2017-09-17T16:38:30.068Z,3.60
2017-09-17T16:40:59.773Z,4.43
2017-09-17T16:43:29.208Z,2.90
2017-09-17T16:45:57.808Z,3.10
2017-09-17T16:48:27.261Z,4.27
2017-09-17T16:50:56.483Z,3.50
2017-09-17T16:53:24.888Z,4.40
2017-09-17T16:55:54.401Z,2.60
2017-09-17T16:58:23.562Z,2.90
2017-09-17T17:00:52.661Z,3.30
2017-09-17T17:03:21.020Z,2.83
2017-09-17T17:05:49.842Z,2.70
2017-09-17T17:08:18.218Z,3.20
2017-09-17T17:10:47.366Z,2.80
2017-09-17T17:13:18.155Z,4.07
2017-09-17T17:15:46.534Z,4.40
2017-09-17T17:18:14.882Z,4.40
2017-09-17T17:20:43.817Z,4.70
2017-09-17T17:23:12.158Z,4.80
2017-09-17T17:25:40.527Z,5.97
2017-09-17T17:28:09.403Z,5.03
2017-09-17T17:30:38.826Z,4.90
2017-09-17T17:33:07.221Z,4.43
2017-09-17T17:35:36.327Z,5.10
2017-09-17T17:38:05.420Z,4.47
2017-09-17T17:40:34.022Z,4.33
2017-09-17T17:43:05.037Z,4.17
2017-09-17T17:45:33.672Z,5.00
2017-09-17T17:48:02.063Z,5.60
2017-09-17T17:50:31.737Z,6.10
2017-09-17T17:53:00.693Z,5.87
2017-09-17T17:55:30.182Z,6.27
2017-09-17T17:57:59.807Z,5.40
2017-09-17T18:00:28.836Z,6.90
2017-09-17T18:02:57.971Z,6.00
2017-09-17T18:05:27.700Z,5.17
2017-09-17T18:07:56.038Z,5.07
2017-09-17T18:10:24.611Z,5.17
2017-09-17T18:12:53.235Z,6.13
2017-09-17T18:15:22.364Z,4.73
2017-09-17T18:17:51.016Z,3.77
2017-09-17T18:20:21.382Z,3.00
2017-09-17T18:22:50.604Z,2.97
2017-09-17T18:25:19.786Z,3.03
2017-09-17T18:27:48.558Z,2.70
2017-09-17T18:30:16.952Z,2.30
2017-09-17T18:32:45.319Z,2.37
2017-09-17T18:35:14.221Z,2.13
2017-09-17T18:37:42.637Z,2.53
2017-09-17T18:40:11.096Z,3.33
2017-09-17T18:42:39.896Z,1.97
2017-09-17T18:45:08.487Z,1.60
2017-09-17T18:47:36.904Z,2.00
2017-09-17T18:50:08.698Z,3.00
2017-09-17T18:52:37.992Z,2.80
2017-09-17T18:55:06.383Z,2.10
2017-09-17T18:57:35.123Z,1.60
2017-09-17T19:00:04.341Z,1.10
2017-09-17T19:02:33.556Z,1.47
2017-09-17T19:05:03.659Z,1.10
2017-09-17T19:07:32.158Z,1.53
2017-09-17T19:10:00.989Z,1.50
2017-09-17T19:12:30.679Z,1.43
2017-09-17T19:15:00.024Z,1.93
2017-09-17T19:17:31.370Z,1.27
2017-09-17T19:20:01.376Z,1.60
2017-09-17T19:22:30.539Z,1.73
2017-09-17T19:25:00.219Z,1.43
2017-09-17T19:27:29.321Z,1.60
2017-09-17T19:29:57.672Z,1.80
2017-09-17T19:32:26.705Z,1.70
2017-09-17T19:34:55.074Z,1.53
2017-09-17T19:37:23.441Z,2.20
2017-09-17T19:39:52.173Z,1.60
2017-09-17T19:42:21.256Z,2.23
2017-09-17T19:44:50.325Z,1.67
2017-09-17T19:47:19.784Z,1.50
2017-09-17T19:49:49.642Z,1.87
2017-09-17T19:52:18.014Z,1.70
2017-09-17T19:54:47.771Z,2.10
2017-09-17T19:57:16.135Z,2.00
2017-09-17T19:59:45.236Z,1.83
2017-09-17T20:02:13.930Z,2.63
2017-09-17T20:04:42.313Z,1.73
2017-09-17T20:07:11.503Z,2.07
2017-09-17T20:09:40.184Z,1.70
2017-09-17T20:12:09.319Z,1.90
2017-09-17T20:14:38.352Z,1.63
2017-09-17T20:17:07.196Z,1.40
2017-09-17T20:19:35.584Z,2.20
2017-09-17T20:22:05.933Z,2.60
2017-09-17T20:24:36.048Z,2.10
2017-09-17T20:27:05.590Z,2.10
2017-09-17T20:29:33.936Z,2.27
2017-09-17T20:32:04.841Z,2.30
2017-09-17T20:37:41.479Z,2.33
2017-09-17T20:40:09.927Z,2.53
2017-09-17T20:42:38.340Z,3.07
2017-09-17T20:45:07.209Z,3.00
2017-09-17T20:47:35.577Z,3.07
2017-09-17T20:50:03.945Z,3.93
2017-09-17T20:52:33.590Z,2.80
2017-09-17T20:55:01.974Z,2.93
2017-09-17T20:57:30.323Z,2.50
2017-09-17T20:59:59.130Z,3.17
2017-09-17T21:02:27.491Z,3.23
2017-09-17T21:04:55.842Z,2.60
2017-09-17T21:07:25.281Z,3.47
2017-09-17T21:09:53.647Z,2.67
2017-09-17T21:12:22.028Z,2.40
2017-09-17T21:14:50.926Z,2.30
2017-09-17T21:17:19.274Z,2.60
2017-09-17T21:19:47.632Z,2.73
2017-09-17T21:22:16.806Z,2.40
2017-09-17T21:24:45.179Z,2.60
2017-09-17T21:27:14.320Z,3.27
2017-09-17T21:29:43.050Z,2.70
2017-09-17T21:32:11.417Z,3.40
2017-09-17T21:34:40.530Z,2.60
2017-09-17T21:37:09.318Z,2.43
2017-09-17T21:39:37.678Z,2.73
2017-09-17T21:42:06.825Z,2.80
2017-09-17T21:44:35.542Z,3.03
2017-09-17T21:47:03.900Z,2.33
2017-09-17T21:49:32.307Z,2.20
2017-09-17T21:52:01.046Z,2.43
2017-09-17T21:54:29.409Z,2.80
2017-09-17T21:56:57.789Z,3.20
2017-09-17T21:59:26.478Z,3.87
2017-09-17T22:01:54.817Z,3.43
2017-09-17T22:04:23.157Z,3.70
2017-09-17T22:06:51.967Z,3.37
2017-09-17T22:09:20.337Z,3.40
2017-09-17T22:11:48.738Z,3.47
2017-09-17T22:14:17.394Z,3.30
2017-09-17T22:16:45.793Z,3.60
2017-09-17T22:19:14.165Z,3.70
2017-09-17T22:21:42.806Z,3.77
2017-09-17T22:24:11.195Z,3.70
2017-09-17T22:26:39.556Z,3.70
2017-09-17T22:29:08.460Z,3.00
2017-09-17T22:31:36.817Z,3.00
2017-09-17T22:34:05.185Z,2.90
2017-09-17T22:36:34.599Z,3.13
2017-09-17T22:39:03.744Z,3.57
2017-09-17T22:41:32.130Z,3.70
2017-09-17T22:44:00.788Z,2.97
2017-09-17T22:46:29.147Z,3.10
2017-09-17T22:48:57.529Z,2.93
2017-09-17T22:51:26.477Z,3.20
2017-09-17T22:53:54.865Z,2.87
2017-09-17T22:56:23.217Z,3.13
2017-09-17T22:58:51.936Z,2.40
2017-09-17T23:01:20.281Z,2.50
2017-09-17T23:03:48.671Z,2.70
2017-09-17T23:06:18.160Z,2.10
2017-09-17T23:08:46.514Z,2.30
2017-09-17T23:11:14.866Z,2.70
2017-09-17T23:13:43.737Z,2.90
2017-09-17T23:16:12.070Z,2.07
2017-09-17T23:18:40.493Z,2.93
2017-09-17T23:21:09.135Z,2.90
2017-09-17T23:23:37.538Z,2.70
2017-09-17T23:26:05.977Z,2.43
2017-09-17T23:28:35.500Z,2.57
2017-09-17T23:31:03.870Z,2.43
2017-09-17T23:33:32.240Z,2.73
2017-09-17T23:36:00.959Z,2.30
2017-09-17T23:38:29.303Z,2.67
2017-09-17T23:40:58.447Z,2.93
2017-09-17T23:43:27.195Z,3.43
2017-09-17T23:45:55.542Z,3.40
2017-09-17T23:48:23.902Z,3.10
2017-09-17T23:50:52.727Z,3.03
2017-09-17T23:53:26.487Z,3.47
2017-09-17T23:55:55.362Z,3.00
2017-09-17T23:58:23.697Z,3.30
